createdAt,value
2018-10-02T00:01:06.145Z,101458.21
2018-10-02T00:03:34.686Z,101454.95
2018-10-02T00:06:03.204Z,101455.63
2018-10-02T00:08:31.724Z,101457.45
2018-10-02T00:11:05.595Z,101456.73
2018-10-02T00:13:39.310Z,101453.31
2018-10-02T00:16:07.802Z,101451.53
2018-10-02T00:18:36.334Z,101448.45
2018-10-02T00:21:04.849Z,101442.66
2018-10-02T00:23:33.337Z,101450.98
2018-10-02T00:26:01.857Z,101448.91
2018-10-02T00:28:30.595Z,101449.77
2018-10-02T00:30:59.120Z,101450.77
2018-10-02T00:33:27.637Z,101453.48
2018-10-02T00:35:56.186Z,101450.68
2018-10-02T00:38:24.688Z,101450.55
2018-10-02T00:40:53.209Z,101456.02
2018-10-02T00:43:21.711Z,101456.02
2018-10-02T00:45:50.383Z,101454.62
2018-10-02T00:48:18.857Z,101456.48
2018-10-02T00:50:47.382Z,101455.00
2018-10-02T00:53:15.881Z,101460.87
2018-10-02T00:55:44.392Z,101464.94
2018-10-02T00:58:12.903Z,101468.45
2018-10-02T01:00:41.429Z,101465.91
2018-10-02T01:03:09.935Z,101467.95
2018-10-02T01:05:38.468Z,101460.03
2018-10-02T01:08:06.967Z,101461.72
2018-10-02T01:10:35.473Z,101468.66
2018-10-02T01:13:03.971Z,101452.38
2018-10-02T01:15:32.490Z,101456.78
2018-10-02T01:18:00.994Z,101461.98
2018-10-02T01:23:03.683Z,101449.38
2018-10-02T01:25:32.224Z,101444.80
2018-10-02T01:28:00.841Z,101446.20
2018-10-02T01:30:29.358Z,101439.43
2018-10-02T01:32:57.841Z,101454.31
2018-10-02T01:35:26.552Z,101439.73
2018-10-02T01:37:55.067Z,101435.97
2018-10-02T01:40:23.611Z,101440.70
2018-10-02T01:42:52.112Z,101436.94
2018-10-02T01:45:24.564Z,101441.00
2018-10-02T01:47:53.074Z,101445.06
2018-10-02T01:50:21.600Z,101431.06
2018-10-02T01:52:50.204Z,101430.93
2018-10-02T01:55:18.776Z,101427.00
2018-10-02T01:57:47.261Z,101427.81
2018-10-02T02:00:15.780Z,101422.36
2018-10-02T02:02:44.274Z,101428.62
2018-10-02T02:05:12.779Z,101425.70
2018-10-02T02:07:41.276Z,101424.01
2018-10-02T02:10:09.804Z,101414.20
2018-10-02T02:12:38.305Z,101413.19
2018-10-02T02:15:06.881Z,101406.42
2018-10-02T02:17:35.389Z,101397.66
2018-10-02T02:20:03.948Z,101391.74
2018-10-02T02:22:32.472Z,101393.60
2018-10-02T02:25:00.990Z,101387.64
2018-10-02T02:27:29.495Z,101381.73
2018-10-02T02:29:57.988Z,101386.97
2018-10-02T02:32:26.507Z,101380.72
2018-10-02T02:34:55.029Z,101386.47
2018-10-02T02:37:23.555Z,101388.70
2018-10-02T02:39:52.049Z,101403.16
2018-10-02T02:42:20.577Z,101406.41
2018-10-02T02:44:49.084Z,101408.34
2018-10-02T02:47:22.807Z,101411.80
2018-10-02T02:49:56.479Z,101394.20
2018-10-02T02:52:28.038Z,101397.48
2018-10-02T02:54:57.184Z,101393.80
2018-10-02T02:57:25.709Z,101398.09
2018-10-02T02:59:54.203Z,101395.28
2018-10-02T03:02:22.761Z,101396.35
2018-10-02T03:04:51.261Z,101397.73
2018-10-02T03:07:19.773Z,101398.75
2018-10-02T03:09:48.300Z,101406.56
2018-10-02T03:12:16.809Z,101399.66
2018-10-02T03:14:45.344Z,101396.10
2018-10-02T03:17:13.876Z,101388.45
2018-10-02T03:19:42.375Z,101386.92
2018-10-02T03:22:10.893Z,101381.99
2018-10-02T03:24:39.391Z,101372.08
2018-10-02T03:27:07.984Z,101382.48
2018-10-02T03:29:36.496Z,101380.39
2018-10-02T03:32:05.013Z,101383.16
2018-10-02T03:34:33.534Z,101390.70
2018-10-02T03:37:02.056Z,101390.47
2018-10-02T03:39:30.632Z,101388.91
2018-10-02T03:41:59.137Z,101388.23
2018-10-02T03:44:27.623Z,101390.05
2018-10-02T03:46:56.155Z,101389.13
2018-10-02T03:49:24.652Z,101387.74
2018-10-02T03:51:53.182Z,101386.05
2018-10-02T03:54:21.700Z,101380.59
2018-10-02T03:56:50.225Z,101382.25
2018-10-02T03:59:18.728Z,101383.39
2018-10-02T04:01:47.246Z,101380.55
2018-10-02T04:04:15.747Z,101375.14
2018-10-02T04:06:44.275Z,101376.20
2018-10-02T04:09:12.868Z,101376.03
2018-10-02T04:11:41.389Z,101371.33
2018-10-02T04:14:09.924Z,101357.44
2018-10-02T04:16:38.756Z,101361.53
2018-10-02T04:19:07.280Z,101357.47
2018-10-02T04:21:36.797Z,101351.52
2018-10-02T04:24:07.316Z,101356.04
2018-10-02T04:26:36.760Z,101348.94
2018-10-02T04:29:05.951Z,101348.73
2018-10-02T04:31:35.795Z,101348.73
2018-10-02T04:34:04.628Z,101346.57
2018-10-02T04:36:33.154Z,101346.81
2018-10-02T04:39:01.684Z,101335.52
2018-10-02T04:41:30.190Z,101339.98
2018-10-02T04:43:58.708Z,101336.47
2018-10-02T04:46:27.203Z,101335.66
2018-10-02T04:48:55.721Z,101341.25
2018-10-02T04:51:24.224Z,101342.16
2018-10-02T04:53:52.732Z,101346.05
2018-10-02T04:56:21.319Z,101340.84
2018-10-02T04:58:49.790Z,101343.20
2018-10-02T05:01:18.288Z,101336.81
2018-10-02T05:03:46.801Z,101345.09
2018-10-02T05:06:15.292Z,101357.28
2018-10-02T05:08:43.884Z,101357.65
2018-10-02T05:11:12.362Z,101358.80
2018-10-02T05:13:40.878Z,101360.70
2018-10-02T05:16:09.569Z,101357.82
2018-10-02T05:18:38.085Z,101353.96
2018-10-02T05:21:06.753Z,101362.11
2018-10-02T05:23:35.280Z,101340.12
2018-10-02T05:26:03.786Z,101352.02
2018-10-02T05:28:32.302Z,101341.53
2018-10-02T05:31:00.811Z,101347.66
2018-10-02T05:33:29.362Z,101346.80
2018-10-02T05:35:57.863Z,101349.01
2018-10-02T05:38:26.372Z,101340.20
2018-10-02T05:40:54.875Z,101332.45
2018-10-02T05:43:23.400Z,101329.40
2018-10-02T05:45:51.929Z,101327.40
2018-10-02T05:48:20.457Z,101327.73
2018-10-02T05:50:48.948Z,101335.86
2018-10-02T05:53:17.469Z,101333.17
2018-10-02T05:55:45.981Z,101327.95
2018-10-02T05:58:14.547Z,101330.88
2018-10-02T06:00:43.103Z,101323.62
2018-10-02T06:03:11.605Z,101324.16
2018-10-02T06:05:40.117Z,101318.77
2018-10-02T06:08:08.634Z,101319.98
2018-10-02T06:10:37.153Z,101318.64
2018-10-02T06:13:05.709Z,101312.56
2018-10-02T06:15:34.206Z,101311.08
2018-10-02T06:18:02.755Z,101305.02
2018-10-02T06:20:31.270Z,101308.09
2018-10-02T06:22:59.786Z,101299.66
2018-10-02T06:25:28.298Z,101306.88
2018-10-02T06:27:56.865Z,101308.77
2018-10-02T06:30:25.470Z,101314.90
2018-10-02T06:32:53.941Z,101311.69
2018-10-02T06:35:22.471Z,101313.38
2018-10-02T06:37:51.199Z,101307.94
2018-10-02T06:40:19.687Z,101306.40
2018-10-02T06:42:48.191Z,101295.72
2018-10-02T06:45:16.700Z,101280.09
2018-10-02T06:47:45.215Z,101277.39
2018-10-02T06:50:13.731Z,101276.22
2018-10-02T06:52:42.527Z,101277.07
2018-10-02T06:55:10.779Z,101275.72
2018-10-02T06:57:39.486Z,101266.09
2018-10-02T07:00:08.209Z,101265.58
2018-10-02T07:02:36.728Z,101272.04
2018-10-02T07:05:05.390Z,101280.19
2018-10-02T07:07:33.894Z,101278.50
2018-10-02T07:10:02.444Z,101276.95
2018-10-02T07:12:30.952Z,101272.74
2018-10-02T07:14:59.503Z,101264.09
2018-10-02T07:17:28.070Z,101258.52
2018-10-02T07:19:56.559Z,101257.81
2018-10-02T07:22:25.053Z,101255.45
2018-10-02T07:24:53.576Z,101254.25
2018-10-02T07:27:22.325Z,101255.96
2018-10-02T07:29:50.650Z,101252.55
2018-10-02T07:32:19.138Z,101258.16
2018-10-02T07:34:47.680Z,101239.15
2018-10-02T07:37:16.199Z,101236.42
2018-10-02T07:39:44.742Z,101250.36
2018-10-02T07:42:13.454Z,101250.00
2018-10-02T07:44:42.032Z,101241.84
2018-10-02T07:47:10.496Z,101242.87
2018-10-02T07:49:39.009Z,101249.84
2018-10-02T07:52:07.503Z,101241.87
2018-10-02T07:54:36.029Z,101240.33
2018-10-02T07:57:04.588Z,101253.06
2018-10-02T07:59:33.109Z,101245.24
2018-10-02T08:02:01.609Z,101243.87
2018-10-02T08:04:30.127Z,101231.99
2018-10-02T08:06:58.731Z,101233.66
2018-10-02T08:09:27.251Z,101233.50
2018-10-02T08:11:55.786Z,101215.16
2018-10-02T08:14:24.333Z,101228.56
2018-10-02T08:16:52.823Z,101220.56
2018-10-02T08:19:21.440Z,101220.05
2018-10-02T08:21:49.904Z,101221.27
2018-10-02T08:24:18.425Z,101211.27
2018-10-02T08:26:46.984Z,101212.28
2018-10-02T08:29:15.506Z,101208.53
2018-10-02T08:31:44.001Z,101195.94
2018-10-02T08:34:12.539Z,101192.52
2018-10-02T08:36:41.033Z,101193.14
2018-10-02T08:39:10.589Z,101178.56
2018-10-02T08:41:39.410Z,101177.89
2018-10-02T08:44:07.917Z,101167.98
2018-10-02T08:46:36.438Z,101177.42
2018-10-02T08:49:04.985Z,101171.47
2018-10-02T08:51:33.549Z,101166.55
2018-10-02T08:54:02.081Z,101169.27
2018-10-02T08:56:30.601Z,101169.27
2018-10-02T08:58:59.097Z,101171.69
2018-10-02T09:01:27.653Z,101159.45
2018-10-02T09:03:56.157Z,101157.11
2018-10-02T09:06:24.735Z,101132.61
2018-10-02T09:08:53.200Z,101122.72
2018-10-02T09:11:21.726Z,101126.61
2018-10-02T09:13:50.288Z,101113.63
2018-10-02T09:16:18.884Z,101118.69
2018-10-02T09:18:47.414Z,101105.41
2018-10-02T09:21:15.922Z,101099.94
2018-10-02T09:23:44.491Z,101088.98
2018-10-02T09:26:13.209Z,101094.03
2018-10-02T09:28:41.779Z,101104.07
2018-10-02T09:31:15.482Z,101092.74
2018-10-02T09:33:49.107Z,101096.28
2018-10-02T09:36:23.033Z,101087.80
2018-10-02T09:38:56.762Z,101092.75
2018-10-02T09:41:30.449Z,101094.83
2018-10-02T09:44:00.780Z,101088.73
2018-10-02T09:46:29.272Z,101080.91
2018-10-02T09:48:57.802Z,101084.27
2018-10-02T09:51:26.341Z,101070.48
2018-10-02T09:53:54.871Z,101061.80
2018-10-02T09:56:23.488Z,101045.52
2018-10-02T09:58:51.961Z,101039.66
2018-10-02T10:01:25.798Z,101033.21
2018-10-02T10:03:54.294Z,101022.09
2018-10-02T10:06:22.919Z,101015.30
2018-10-02T10:08:51.421Z,101006.73
2018-10-02T10:11:19.959Z,101006.70
2018-10-02T10:13:48.446Z,100992.52
2018-10-02T10:16:16.960Z,100997.20
2018-10-02T10:18:45.461Z,100978.95
2018-10-02T10:21:13.989Z,100982.47
2018-10-02T10:23:42.487Z,100982.43
2018-10-02T10:26:11.006Z,100978.87
2018-10-02T10:28:39.555Z,100973.47
2018-10-02T10:31:08.101Z,100967.52
2018-10-02T10:33:36.710Z,100961.23
2018-10-02T10:36:05.186Z,100957.31
2018-10-02T10:38:33.684Z,100942.59
2018-10-02T10:41:02.277Z,100941.08
2018-10-02T10:43:30.778Z,100937.61
2018-10-02T10:45:59.318Z,100936.42
2018-10-02T10:48:27.827Z,100932.22
2018-10-02T10:50:56.363Z,100926.78
2018-10-02T10:53:24.906Z,100918.98
2018-10-02T10:55:53.405Z,100911.34
2018-10-02T10:58:21.940Z,100903.19
2018-10-02T11:00:50.486Z,100890.75
2018-10-02T11:03:19.034Z,100876.16
2018-10-02T11:05:47.530Z,100877.00
2018-10-02T11:08:16.047Z,100873.55
2018-10-02T11:10:44.554Z,100873.27
2018-10-02T11:13:13.090Z,100874.73
2018-10-02T11:15:41.598Z,100866.83
2018-10-02T11:18:10.130Z,100852.50
2018-10-02T11:20:38.806Z,100850.24
2018-10-02T11:23:07.359Z,100845.27
2018-10-02T11:25:35.863Z,100846.39
2018-10-02T11:28:04.409Z,100839.53
2018-10-02T11:30:32.919Z,100834.92
2018-10-02T11:33:01.478Z,100835.30
2018-10-02T11:35:30.057Z,100839.33
2018-10-02T11:37:58.581Z,100818.10
2018-10-02T11:40:27.094Z,100813.02
2018-10-02T11:42:55.613Z,100813.85
2018-10-02T11:45:24.138Z,100813.47
2018-10-02T11:47:52.645Z,100807.88
2018-10-02T11:50:21.146Z,100804.50
2018-10-02T11:52:49.674Z,100806.90
2018-10-02T11:55:18.264Z,100794.97
2018-10-02T11:57:46.735Z,100771.84
2018-10-02T12:00:15.417Z,100774.70
2018-10-02T12:02:43.878Z,100772.44
2018-10-02T12:05:12.394Z,100755.73
2018-10-02T12:07:40.914Z,100756.36
2018-10-02T12:10:09.502Z,100751.90
2018-10-02T12:12:38.029Z,100744.16
2018-10-02T12:15:06.578Z,100727.57
2018-10-02T12:17:35.116Z,100735.73
2018-10-02T12:20:03.755Z,100737.34
2018-10-02T12:22:32.170Z,100725.89
2018-10-02T12:25:00.664Z,100735.42
2018-10-02T12:27:29.219Z,100725.48
2018-10-02T12:29:57.709Z,100725.89
2018-10-02T12:32:26.249Z,100729.84
2018-10-02T12:34:54.772Z,100725.62
2018-10-02T12:37:23.303Z,100724.64
2018-10-02T12:39:51.802Z,100730.33
2018-10-02T12:42:20.335Z,100727.15
2018-10-02T12:44:48.846Z,100716.78
2018-10-02T12:47:17.369Z,100727.01
2018-10-02T12:49:45.865Z,100729.73
2018-10-02T12:52:14.450Z,100728.83
2018-10-02T12:54:42.949Z,100718.91
2018-10-02T12:57:11.542Z,100712.91
2018-10-02T12:59:40.066Z,100702.38
2018-10-02T13:02:08.582Z,100710.12
2018-10-02T13:04:37.108Z,100703.45
2018-10-02T13:07:05.713Z,100720.62
2018-10-02T13:09:34.193Z,100720.00
2018-10-02T13:12:02.711Z,100704.50
2018-10-02T13:14:31.242Z,100708.37
2018-10-02T13:16:59.741Z,100703.70
2018-10-02T13:19:28.372Z,100700.27
2018-10-02T13:21:56.879Z,100695.88
2018-10-02T13:24:25.398Z,100686.34
2018-10-02T13:26:53.895Z,100683.09
2018-10-02T13:29:22.430Z,100681.21
2018-10-02T13:31:50.943Z,100674.02
2018-10-02T13:34:19.576Z,100675.83
2018-10-02T13:36:48.083Z,100667.66
2018-10-02T13:39:16.598Z,100663.27
2018-10-02T13:41:45.114Z,100665.25
2018-10-02T13:44:13.650Z,100654.10
2018-10-02T13:46:42.162Z,100659.08
2018-10-02T13:49:10.698Z,100648.29
2018-10-02T13:51:39.213Z,100655.89
2018-10-02T13:54:07.816Z,100655.59
2018-10-02T13:56:36.367Z,100656.04
2018-10-02T13:59:04.893Z,100660.57
2018-10-02T14:01:33.419Z,100664.27
2018-10-02T14:04:01.941Z,100666.78
2018-10-02T14:06:30.485Z,100667.30
2018-10-02T14:08:59.023Z,100672.23
2018-10-02T14:11:27.523Z,100662.69
2018-10-02T14:13:56.060Z,100667.12
2018-10-02T14:16:24.559Z,100654.86
2018-10-02T14:18:53.104Z,100662.95
2018-10-02T14:21:21.612Z,100662.87
2018-10-02T14:23:50.130Z,100660.37
2018-10-02T14:26:18.639Z,100658.30
2018-10-02T14:28:47.164Z,100653.60
2018-10-02T14:31:15.676Z,100648.38
2018-10-02T14:33:44.241Z,100644.54
2018-10-02T14:36:12.733Z,100638.59
2018-10-02T14:38:41.293Z,100629.48
2018-10-02T14:41:09.804Z,100635.16
2018-10-02T14:43:38.417Z,100638.41
2018-10-02T14:46:06.955Z,100646.16
2018-10-02T14:48:35.523Z,100643.96
2018-10-02T14:51:04.024Z,100642.07
2018-10-02T14:53:32.574Z,100642.47
2018-10-02T14:56:01.076Z,100646.96
2018-10-02T14:58:29.632Z,100648.23
2018-10-02T15:00:58.177Z,100649.29
2018-10-02T15:03:26.693Z,100657.16
2018-10-02T15:05:55.212Z,100656.41
2018-10-02T15:08:23.730Z,100663.58
2018-10-02T15:10:52.278Z,100670.48
2018-10-02T15:13:20.787Z,100673.73
2018-10-02T15:15:49.337Z,100680.55
2018-10-02T15:18:17.846Z,100682.76
2018-10-02T15:20:46.375Z,100685.83
2018-10-02T15:23:14.874Z,100702.19
2018-10-02T15:25:43.393Z,100700.09
2018-10-02T15:28:11.899Z,100693.61
2018-10-02T15:30:40.430Z,100687.94
2018-10-02T15:33:08.965Z,100692.69
2018-10-02T15:35:37.502Z,100682.61
2018-10-02T15:38:06.064Z,100683.58
2018-10-02T15:40:34.600Z,100676.54
2018-10-02T15:43:03.104Z,100680.54
2018-10-02T15:45:31.645Z,100678.65
2018-10-02T15:48:00.233Z,100663.13
2018-10-02T15:50:28.775Z,100663.55
2018-10-02T15:52:57.274Z,100659.90
2018-10-02T15:55:25.803Z,100667.55
2018-10-02T15:57:54.348Z,100685.81
2018-10-02T16:00:22.862Z,100679.52
2018-10-02T16:02:51.367Z,100676.27
2018-10-02T16:05:19.933Z,100673.02
2018-10-02T16:07:48.444Z,100687.03
2018-10-02T16:10:17.028Z,100668.55
2018-10-02T16:12:45.551Z,100683.77
2018-10-02T16:15:14.051Z,100685.44
2018-10-02T16:17:42.568Z,100674.84
2018-10-02T16:20:11.122Z,100683.77
2018-10-02T16:22:39.665Z,100686.44
2018-10-02T16:25:08.192Z,100688.84
2018-10-02T16:27:36.792Z,100686.77
2018-10-02T16:30:05.312Z,100685.06
2018-10-02T16:32:33.841Z,100681.72
2018-10-02T16:35:02.380Z,100682.77
2018-10-02T16:37:30.923Z,100678.03
2018-10-02T16:39:59.452Z,100675.30
2018-10-02T16:42:28.023Z,100693.88
2018-10-02T16:44:56.539Z,100688.95
2018-10-02T16:47:25.079Z,100683.70
2018-10-02T16:49:53.589Z,100678.66
2018-10-02T16:52:22.125Z,100681.69
2018-10-02T16:54:50.627Z,100688.20
2018-10-02T16:57:19.180Z,100696.05
2018-10-02T16:59:47.698Z,100689.56
2018-10-02T17:02:16.240Z,100693.53
2018-10-02T17:04:44.755Z,100691.03
2018-10-02T17:07:13.298Z,100684.61
2018-10-02T17:09:41.809Z,100694.44
2018-10-02T17:12:10.334Z,100695.98
2018-10-02T17:14:38.847Z,100697.31
2018-10-02T17:17:07.443Z,100696.03
2018-10-02T17:19:35.991Z,100705.58
2018-10-02T17:22:04.528Z,100709.48
2018-10-02T17:24:33.046Z,100704.87
2018-10-02T17:27:01.591Z,100713.89
2018-10-02T17:29:30.116Z,100720.58
2018-10-02T17:31:58.677Z,100723.52
2018-10-02T17:34:27.231Z,100727.21
2018-10-02T17:36:55.779Z,100730.34
2018-10-02T17:39:24.337Z,100732.67
2018-10-02T17:41:52.882Z,100733.52
2018-10-02T17:44:21.411Z,100733.45
2018-10-02T17:46:49.946Z,100727.39
2018-10-02T17:49:18.456Z,100729.72
2018-10-02T17:51:46.985Z,100722.15
2018-10-02T17:54:15.507Z,100734.24
2018-10-02T17:56:44.042Z,100736.45
2018-10-02T17:59:12.547Z,100734.59
2018-10-02T18:01:41.120Z,100737.35
2018-10-02T18:04:09.954Z,100739.95
2018-10-02T18:06:38.497Z,100737.63
2018-10-02T18:09:08.085Z,100734.25
2018-10-02T18:11:36.894Z,100737.81
2018-10-02T18:14:05.424Z,100735.26
2018-10-02T18:16:33.934Z,100731.35
2018-10-02T18:19:02.463Z,100737.42
2018-10-02T18:21:30.995Z,100728.06
2018-10-02T18:23:59.636Z,100725.11
2018-10-02T18:26:28.145Z,100726.78
2018-10-02T18:28:56.684Z,100740.95
2018-10-02T18:31:25.235Z,100736.94
2018-10-02T18:33:53.792Z,100737.99
2018-10-02T18:36:22.307Z,100728.77
2018-10-02T18:38:50.861Z,100725.91
2018-10-02T18:41:19.426Z,100738.56
2018-10-02T18:43:47.955Z,100736.62
2018-10-02T18:46:16.467Z,100742.55
2018-10-02T18:48:45.026Z,100739.20
2018-10-02T18:51:13.547Z,100741.48
2018-10-02T18:53:42.129Z,100742.86
2018-10-02T18:56:10.749Z,100737.19
2018-10-02T18:58:39.242Z,100745.23
2018-10-02T19:01:07.749Z,100751.81
2018-10-02T19:03:36.296Z,100753.88
2018-10-02T19:06:04.813Z,100759.72
2018-10-02T19:08:38.542Z,100753.64
2018-10-02T19:11:12.232Z,100756.50
2018-10-02T19:13:40.829Z,100768.92
2018-10-02T19:16:14.479Z,100760.74
2018-10-02T19:18:43.022Z,100764.20
2018-10-02T19:21:11.565Z,100757.70
2018-10-02T19:23:40.137Z,100765.05
2018-10-02T19:26:13.679Z,100767.64
2018-10-02T19:28:42.291Z,100762.11
2018-10-02T19:31:16.028Z,100764.36
2018-10-02T19:33:44.574Z,100762.32
2018-10-02T19:36:13.077Z,100772.43
2018-10-02T19:38:46.973Z,100767.66
2018-10-02T19:41:15.488Z,100772.34
2018-10-02T19:43:44.028Z,100772.97
2018-10-02T19:46:17.893Z,100769.94
2018-10-02T19:48:46.431Z,100781.94
2018-10-02T19:51:20.193Z,100788.34
2018-10-02T19:53:48.756Z,100796.52
2018-10-02T19:56:17.278Z,100798.74
2018-10-02T19:58:45.879Z,100801.78
2018-10-02T20:01:14.382Z,100803.20
2018-10-02T20:03:42.905Z,100796.05
2018-10-02T20:06:11.417Z,100795.32
2018-10-02T20:08:39.934Z,100798.94
2018-10-02T20:11:08.426Z,100787.72
2018-10-02T20:13:37.184Z,100755.58
2018-10-02T20:16:05.519Z,100789.53
2018-10-02T20:18:34.058Z,100790.58
2018-10-02T20:21:02.559Z,100787.75
2018-10-02T20:23:31.100Z,100788.66
2018-10-02T20:25:59.809Z,100790.02
2018-10-02T20:28:28.333Z,100791.70
2018-10-02T20:30:56.836Z,100790.34
2018-10-02T20:33:25.636Z,100791.17
2018-10-02T20:35:54.142Z,100791.39
2018-10-02T20:38:22.674Z,100791.47
2018-10-02T20:40:51.515Z,100798.67
2018-10-02T20:43:20.340Z,100814.05
2018-10-02T20:45:48.886Z,100807.84
2018-10-02T20:48:17.385Z,100800.12
2018-10-02T20:50:45.958Z,100800.19
2018-10-02T20:53:14.457Z,100803.30
2018-10-02T20:55:42.980Z,100797.72
2018-10-02T20:58:11.497Z,100805.64
2018-10-02T21:00:40.038Z,100802.78
2018-10-02T21:03:08.596Z,100797.41
2018-10-02T21:05:37.132Z,100786.05
2018-10-02T21:08:05.632Z,100802.08
2018-10-02T21:10:34.163Z,100803.09
2018-10-02T21:13:02.657Z,100791.12
2018-10-02T21:15:31.269Z,100800.89
2018-10-02T21:17:59.722Z,100793.31
2018-10-02T21:20:28.262Z,100792.27
2018-10-02T21:22:56.754Z,100784.23
2018-10-02T21:25:25.283Z,100783.72
2018-10-02T21:27:53.850Z,100789.48
2018-10-02T21:30:22.400Z,100796.11
2018-10-02T21:32:50.904Z,100800.20
2018-10-02T21:35:19.454Z,100802.92
2018-10-02T21:37:47.948Z,100801.73
2018-10-02T21:40:16.575Z,100817.38
2018-10-02T21:42:45.076Z,100805.05
2018-10-02T21:45:13.606Z,100813.50
2018-10-02T21:47:42.131Z,100811.39
2018-10-02T21:50:10.657Z,100804.73
2018-10-02T21:52:39.179Z,100814.43
2018-10-02T21:55:07.722Z,100818.72
2018-10-02T21:57:36.225Z,100810.62
2018-10-02T22:00:05.424Z,100798.43
2018-10-02T22:02:33.950Z,100798.95
2018-10-02T22:05:02.490Z,100797.13
2018-10-02T22:07:30.997Z,100804.46
2018-10-02T22:09:59.519Z,100795.94
2018-10-02T22:12:28.023Z,100791.86
2018-10-02T22:14:56.548Z,100798.34
2018-10-02T22:17:25.098Z,100789.87
2018-10-02T22:19:53.632Z,100789.48
2018-10-02T22:22:22.144Z,100787.80
2018-10-02T22:24:50.680Z,100785.00
2018-10-02T22:27:19.196Z,100781.65
2018-10-02T22:29:47.776Z,100785.21
2018-10-02T22:32:16.285Z,100786.37
2018-10-02T22:34:44.852Z,100787.20
2018-10-02T22:37:13.353Z,100784.31
2018-10-02T22:39:41.886Z,100790.70
2018-10-02T22:42:10.399Z,100794.66
2018-10-02T22:44:38.910Z,100781.19
2018-10-02T22:47:07.438Z,100777.94
2018-10-02T22:49:35.952Z,100773.66
2018-10-02T22:52:04.508Z,100802.70
2018-10-02T22:54:33.225Z,100818.59
2018-10-02T22:57:01.774Z,100820.62
2018-10-02T22:59:30.540Z,100807.06
2018-10-02T23:01:59.069Z,100815.55
2018-10-02T23:04:27.573Z,100813.35
2018-10-02T23:06:56.105Z,100808.61
2018-10-02T23:09:24.600Z,100805.05
2018-10-02T23:11:53.141Z,100801.16
2018-10-02T23:14:21.666Z,100797.92
2018-10-02T23:16:50.189Z,100791.42
2018-10-02T23:19:18.699Z,100797.19
2018-10-02T23:21:47.213Z,100794.92
2018-10-02T23:24:15.713Z,100800.83
2018-10-02T23:26:44.247Z,100798.09
2018-10-02T23:29:12.749Z,100810.18
2018-10-02T23:31:41.262Z,100809.97
2018-10-02T23:34:09.800Z,100812.38
2018-10-02T23:36:38.370Z,100809.73
2018-10-02T23:39:08.294Z,100811.61
2018-10-02T23:41:36.843Z,100813.53
2018-10-02T23:44:05.358Z,100806.99
2018-10-02T23:46:33.901Z,100822.80
2018-10-02T23:49:02.428Z,100820.02
2018-10-02T23:51:30.963Z,100827.11
2018-10-02T23:53:59.465Z,100814.79
2018-10-02T23:56:28.039Z,100836.52
2018-10-02T23:58:56.548Z,100824.78
